createdAt,value
2017-08-26T00:01:50.947Z,8.70
2017-08-26T00:04:17.001Z,9.33
2017-08-26T00:06:43.074Z,9.30
2017-08-26T00:09:09.118Z,8.73
2017-08-26T00:11:35.190Z,8.50
2017-08-26T00:14:01.241Z,9.87
2017-08-26T00:16:27.410Z,8.10
2017-08-26T00:18:53.462Z,8.43
2017-08-26T00:21:19.530Z,8.97
2017-08-26T00:23:45.573Z,8.50
2017-08-26T00:26:11.739Z,8.30
2017-08-26T00:28:37.786Z,8.93
2017-08-26T00:31:03.870Z,9.93
2017-08-26T00:33:29.934Z,9.50
2017-08-26T00:35:56.022Z,12.07
2017-08-26T00:38:22.182Z,13.07
2017-08-26T00:40:48.267Z,13.27
2017-08-26T00:43:14.321Z,10.80
2017-08-26T00:45:40.393Z,11.63
2017-08-26T00:48:06.451Z,11.40
2017-08-26T00:50:32.542Z,11.30
2017-08-26T00:52:58.610Z,14.13
2017-08-26T00:55:24.822Z,14.03
2017-08-26T00:57:50.882Z,15.33
2017-08-26T01:00:16.953Z,15.30
2017-08-26T01:02:43.034Z,11.87
2017-08-26T01:05:16.081Z,12.20
2017-08-26T01:07:42.138Z,10.90
2017-08-26T01:10:08.215Z,10.50
2017-08-26T01:12:34.274Z,10.97
2017-08-26T01:15:00.318Z,11.27
2017-08-26T01:17:26.399Z,12.47
2017-08-26T01:19:52.473Z,11.17
2017-08-26T01:22:18.560Z,10.83
2017-08-26T01:24:44.640Z,10.50
2017-08-26T01:27:10.714Z,10.77
2017-08-26T01:29:36.763Z,9.63
2017-08-26T01:32:02.845Z,10.43
2017-08-26T01:34:28.894Z,10.87
2017-08-26T01:36:54.968Z,11.00
2017-08-26T01:39:21.015Z,10.90
2017-08-26T01:41:47.094Z,12.10
2017-08-26T01:44:13.206Z,12.00
2017-08-26T01:46:39.278Z,14.10
2017-08-26T01:49:05.323Z,13.10
2017-08-26T01:51:31.390Z,12.90
2017-08-26T01:53:57.442Z,12.50
2017-08-26T01:56:23.515Z,11.83
2017-08-26T01:58:49.564Z,12.90
2017-08-26T02:01:15.651Z,11.20
2017-08-26T02:03:41.694Z,12.07
2017-08-26T02:06:07.781Z,12.47
2017-08-26T02:08:33.830Z,12.40
2017-08-26T02:10:59.911Z,13.50
2017-08-26T02:13:25.994Z,12.47
2017-08-26T02:15:52.066Z,12.00
2017-08-26T02:18:18.122Z,12.10
2017-08-26T02:20:44.177Z,12.50
2017-08-26T02:23:10.254Z,13.23
2017-08-26T02:25:36.378Z,15.30
2017-08-26T02:28:02.462Z,15.90
2017-08-26T02:30:28.534Z,13.00
2017-08-26T02:32:54.606Z,13.70
2017-08-26T02:35:20.660Z,16.30
2017-08-26T02:37:46.726Z,15.97
2017-08-26T02:40:12.774Z,15.57
2017-08-26T02:42:38.851Z,13.80
2017-08-26T02:45:04.911Z,15.00
2017-08-26T02:47:30.987Z,14.80
2017-08-26T02:49:57.074Z,14.03
2017-08-26T02:52:23.154Z,14.20
2017-08-26T02:54:49.207Z,14.30
2017-08-26T02:57:15.298Z,14.20
2017-08-26T02:59:41.366Z,13.87
2017-08-26T03:02:07.442Z,13.50
2017-08-26T03:04:33.512Z,12.67
2017-08-26T03:06:59.579Z,14.30
2017-08-26T03:09:25.643Z,13.03
2017-08-26T03:11:51.730Z,12.70
2017-08-26T03:14:17.794Z,13.33
2017-08-26T03:16:43.857Z,13.40
2017-08-26T03:19:09.913Z,14.70
2017-08-26T03:21:35.962Z,14.47
2017-08-26T03:24:02.035Z,13.23
2017-08-26T03:26:28.099Z,13.80
2017-08-26T03:28:54.169Z,13.70
2017-08-26T03:31:20.217Z,14.13
2017-08-26T03:33:46.291Z,13.80
2017-08-26T03:36:12.334Z,13.00
2017-08-26T03:38:38.397Z,13.10
2017-08-26T03:41:04.441Z,13.47
2017-08-26T03:43:30.497Z,13.70
2017-08-26T03:45:56.546Z,11.40
2017-08-26T03:48:22.618Z,13.00
2017-08-26T03:50:48.702Z,12.67
2017-08-26T03:53:14.806Z,12.00
2017-08-26T03:55:40.879Z,13.43
2017-08-26T03:58:06.920Z,12.13
2017-08-26T04:00:32.986Z,11.60
2017-08-26T04:02:59.029Z,14.73
2017-08-26T04:05:25.102Z,13.43
2017-08-26T04:07:51.153Z,14.10
2017-08-26T04:10:17.245Z,13.40
2017-08-26T04:12:43.293Z,13.60
2017-08-26T04:15:09.362Z,12.90
2017-08-26T04:17:35.418Z,12.77
2017-08-26T04:20:01.482Z,12.60
2017-08-26T04:22:27.559Z,12.87
2017-08-26T04:24:53.667Z,12.53
2017-08-26T04:27:19.715Z,12.70
2017-08-26T04:29:45.782Z,12.67
2017-08-26T04:32:11.841Z,14.20
2017-08-26T04:34:37.913Z,13.70
2017-08-26T04:37:03.969Z,14.47
2017-08-26T04:39:30.109Z,14.23
2017-08-26T04:41:56.198Z,13.40
2017-08-26T04:44:22.250Z,13.10
2017-08-26T04:46:48.331Z,13.10
2017-08-26T04:49:14.417Z,13.80
2017-08-26T04:51:42.507Z,13.70
2017-08-26T04:54:08.570Z,12.80
2017-08-26T04:56:34.646Z,12.97
2017-08-26T04:59:00.722Z,12.90
2017-08-26T05:01:26.796Z,12.87
2017-08-26T05:03:52.937Z,12.90
2017-08-26T05:06:19.010Z,12.60
2017-08-26T05:08:45.126Z,13.70
2017-08-26T05:11:11.321Z,13.67
2017-08-26T05:13:37.383Z,13.30
2017-08-26T05:16:03.466Z,13.60
2017-08-26T05:18:29.542Z,13.60
2017-08-26T05:20:55.662Z,12.83
2017-08-26T05:23:21.728Z,13.73
2017-08-26T05:25:47.856Z,12.70
2017-08-26T05:28:14.014Z,14.20
2017-08-26T05:30:40.230Z,12.17
2017-08-26T05:33:06.286Z,11.97
2017-08-26T05:35:32.422Z,12.03
2017-08-26T05:37:58.502Z,11.90
2017-08-26T05:40:24.561Z,10.90
2017-08-26T05:42:50.654Z,11.80
2017-08-26T05:45:16.726Z,11.40
2017-08-26T05:47:42.787Z,11.00
2017-08-26T05:50:08.834Z,10.23
2017-08-26T05:52:35.230Z,11.17
2017-08-26T05:55:01.474Z,9.77
2017-08-26T05:57:27.534Z,10.47
2017-08-26T05:59:53.583Z,9.33
2017-08-26T06:02:19.703Z,9.27
2017-08-26T06:04:45.758Z,9.13
2017-08-26T06:07:11.832Z,10.00
2017-08-26T06:09:39.376Z,9.63
2017-08-26T06:12:05.475Z,8.77
2017-08-26T06:14:31.533Z,9.23
2017-08-26T06:16:57.582Z,9.30
2017-08-26T06:19:23.652Z,9.13
2017-08-26T06:21:49.762Z,7.90
2017-08-26T06:24:15.999Z,8.07
2017-08-26T06:26:42.068Z,8.67
2017-08-26T06:29:08.126Z,9.17
2017-08-26T06:31:34.162Z,8.03
2017-08-26T06:34:00.975Z,8.43
2017-08-26T06:36:27.030Z,7.63
2017-08-26T06:38:53.138Z,8.63
2017-08-26T06:41:19.190Z,8.07
2017-08-26T06:43:45.245Z,8.10
2017-08-26T06:46:11.310Z,7.93
2017-08-26T06:48:37.378Z,7.80
2017-08-26T06:51:03.425Z,8.00
2017-08-26T06:53:29.502Z,8.30
2017-08-26T06:55:55.545Z,8.03
2017-08-26T06:58:21.604Z,7.97
2017-08-26T07:00:47.675Z,7.50
2017-08-26T07:03:13.817Z,7.70
2017-08-26T07:05:39.860Z,7.70
2017-08-26T07:08:05.914Z,7.47
2017-08-26T07:10:31.960Z,7.60
2017-08-26T07:12:58.026Z,6.83
2017-08-26T07:15:24.066Z,7.00
2017-08-26T07:17:50.130Z,7.17
2017-08-26T07:20:16.194Z,7.57
2017-08-26T07:22:42.234Z,8.00
2017-08-26T07:25:08.402Z,7.23
2017-08-26T07:27:34.450Z,7.87
2017-08-26T07:30:00.510Z,6.90
2017-08-26T07:32:26.566Z,7.70
2017-08-26T07:34:52.646Z,8.27
2017-08-26T07:37:18.698Z,8.03
2017-08-26T07:39:44.829Z,7.07
2017-08-26T07:42:10.879Z,7.43
2017-08-26T07:44:36.950Z,8.00
2017-08-26T07:47:02.993Z,7.53
2017-08-26T07:49:29.699Z,7.50
2017-08-26T07:51:55.754Z,6.30
2017-08-26T07:54:21.839Z,7.67
2017-08-26T07:56:47.894Z,6.90
2017-08-26T07:59:13.962Z,7.87
2017-08-26T08:01:40.046Z,7.43
2017-08-26T08:04:06.094Z,7.03
2017-08-26T08:06:32.206Z,7.63
2017-08-26T08:08:58.258Z,7.30
2017-08-26T08:11:24.319Z,6.60
2017-08-26T08:13:50.365Z,6.93
2017-08-26T08:16:16.423Z,7.20
2017-08-26T08:18:42.474Z,7.20
2017-08-26T08:21:08.537Z,7.10
2017-08-26T08:23:34.578Z,7.37
2017-08-26T08:26:00.670Z,7.10
2017-08-26T08:28:26.738Z,8.00
2017-08-26T08:30:52.787Z,7.47
2017-08-26T08:33:18.851Z,7.27
2017-08-26T08:35:44.923Z,7.40
2017-08-26T08:38:10.990Z,7.30
2017-08-26T08:40:37.058Z,7.17
2017-08-26T08:43:03.111Z,7.20
2017-08-26T08:45:29.170Z,6.60
2017-08-26T08:47:55.233Z,6.77
2017-08-26T08:50:21.287Z,6.33
2017-08-26T08:52:47.358Z,6.50
2017-08-26T08:55:13.466Z,6.63
2017-08-26T08:57:39.539Z,5.90
2017-08-26T09:00:05.585Z,6.70
2017-08-26T09:02:31.647Z,6.23
2017-08-26T09:04:57.694Z,6.20
2017-08-26T09:07:23.761Z,6.60
2017-08-26T09:09:49.818Z,5.77
2017-08-26T09:12:15.898Z,6.43
2017-08-26T09:14:41.942Z,5.60
2017-08-26T09:17:08.021Z,6.17
2017-08-26T09:19:34.087Z,6.00
2017-08-26T09:22:00.150Z,5.70
2017-08-26T09:24:26.221Z,5.63
2017-08-26T09:26:52.306Z,6.10
2017-08-26T09:29:18.370Z,5.40
2017-08-26T09:31:44.415Z,6.43
2017-08-26T09:34:10.478Z,5.60
2017-08-26T09:36:36.762Z,6.30
2017-08-26T09:39:02.838Z,6.50
2017-08-26T09:41:28.935Z,6.90
2017-08-26T09:43:54.991Z,6.37
2017-08-26T09:46:21.167Z,6.10
2017-08-26T09:48:47.238Z,7.30
2017-08-26T09:51:13.314Z,7.60
2017-08-26T09:53:39.421Z,6.93
2017-08-26T09:56:12.497Z,6.23
2017-08-26T09:58:38.577Z,6.60
2017-08-26T10:01:26.487Z,7.90
2017-08-26T10:03:52.557Z,7.80
2017-08-26T10:06:18.603Z,7.30
2017-08-26T10:08:44.666Z,7.30
2017-08-26T10:11:10.705Z,7.90
2017-08-26T10:13:36.770Z,7.50
2017-08-26T10:16:02.826Z,8.73
2017-08-26T10:18:28.899Z,7.80
2017-08-26T10:20:54.945Z,7.10
2017-08-26T10:23:21.007Z,9.00
2017-08-26T10:25:47.074Z,8.70
2017-08-26T10:28:13.153Z,8.07
2017-08-26T10:30:39.230Z,9.67
2017-08-26T10:33:05.323Z,8.07
2017-08-26T10:35:31.377Z,8.20
2017-08-26T10:37:57.453Z,7.97
2017-08-26T10:40:23.527Z,8.17
2017-08-26T10:42:49.607Z,7.33
2017-08-26T10:45:15.666Z,7.03
2017-08-26T10:47:42.582Z,7.83
2017-08-26T10:50:08.650Z,7.00
2017-08-26T10:52:34.730Z,8.10
2017-08-26T10:55:00.771Z,7.73
2017-08-26T10:57:26.833Z,7.57
2017-08-26T10:59:52.952Z,7.23
2017-08-26T11:02:19.030Z,8.73
2017-08-26T11:04:45.110Z,7.73
2017-08-26T11:07:11.219Z,8.40
2017-08-26T11:09:37.275Z,7.87
2017-08-26T11:12:03.334Z,7.80
2017-08-26T11:14:29.751Z,6.90
2017-08-26T11:16:55.802Z,6.20
2017-08-26T11:19:21.854Z,6.33
2017-08-26T11:21:47.950Z,7.03
2017-08-26T11:24:14.078Z,6.30
2017-08-26T11:26:40.141Z,7.47
2017-08-26T11:29:06.190Z,7.40
2017-08-26T11:31:32.498Z,7.37
2017-08-26T11:33:58.771Z,6.83
2017-08-26T11:36:24.850Z,6.60
2017-08-26T11:38:50.902Z,6.67
2017-08-26T11:41:16.966Z,6.60
2017-08-26T11:43:43.010Z,6.30
2017-08-26T11:46:09.093Z,6.43
2017-08-26T11:48:35.145Z,6.00
2017-08-26T11:51:01.226Z,6.30
2017-08-26T11:53:27.277Z,6.07
2017-08-26T11:55:53.326Z,6.60
2017-08-26T11:58:19.378Z,6.37
2017-08-26T12:00:45.453Z,6.13
2017-08-26T12:03:11.505Z,6.00
2017-08-26T12:05:37.574Z,6.30
2017-08-26T12:08:03.669Z,5.80
2017-08-26T12:10:29.734Z,5.07
2017-08-26T12:12:55.792Z,5.57
2017-08-26T12:15:21.863Z,5.70
2017-08-26T12:17:47.918Z,5.70
2017-08-26T12:20:14.054Z,6.10
2017-08-26T12:22:40.102Z,5.60
2017-08-26T12:25:06.178Z,5.60
2017-08-26T12:27:32.231Z,6.17
2017-08-26T12:29:58.293Z,5.20
2017-08-26T12:32:24.346Z,5.03
2017-08-26T12:34:50.413Z,4.60
2017-08-26T12:37:16.455Z,5.93
2017-08-26T12:39:42.530Z,5.43
2017-08-26T12:42:08.598Z,4.90
2017-08-26T12:44:34.686Z,4.90
2017-08-26T12:47:00.734Z,4.70
2017-08-26T12:49:26.790Z,4.87
2017-08-26T12:51:52.858Z,4.53
2017-08-26T12:54:18.906Z,4.70
2017-08-26T12:56:44.970Z,5.17
2017-08-26T12:59:11.013Z,4.87
2017-08-26T13:01:37.082Z,5.30
2017-08-26T13:04:03.153Z,6.13
2017-08-26T13:06:29.215Z,5.07
2017-08-26T13:08:55.335Z,6.70
2017-08-26T13:11:21.399Z,5.80
2017-08-26T13:13:47.446Z,5.57
2017-08-26T13:16:13.526Z,6.43
2017-08-26T13:18:39.635Z,5.27
2017-08-26T13:21:05.694Z,5.87
2017-08-26T13:23:31.742Z,6.03
2017-08-26T13:25:57.813Z,7.20
2017-08-26T13:28:23.862Z,6.20
2017-08-26T13:30:49.929Z,6.67
2017-08-26T13:33:15.982Z,5.87
2017-08-26T13:35:42.046Z,6.10
2017-08-26T13:38:08.111Z,6.90
2017-08-26T13:40:34.159Z,6.80
2017-08-26T13:43:00.230Z,7.23
2017-08-26T13:45:26.273Z,7.10
2017-08-26T13:47:52.340Z,6.80
2017-08-26T13:50:18.404Z,7.20
2017-08-26T13:52:44.486Z,6.67
2017-08-26T13:55:10.530Z,6.40
2017-08-26T13:57:36.599Z,6.57
2017-08-26T14:00:02.658Z,8.20
2017-08-26T14:02:28.981Z,8.30
2017-08-26T14:04:55.034Z,7.20
2017-08-26T14:07:21.102Z,6.40
2017-08-26T14:09:47.145Z,7.90
2017-08-26T14:12:13.203Z,7.20
2017-08-26T14:14:39.260Z,7.37
2017-08-26T14:17:05.314Z,8.20
2017-08-26T14:19:31.371Z,8.30
2017-08-26T14:21:57.434Z,8.00
2017-08-26T14:24:23.502Z,8.43
2017-08-26T14:26:49.565Z,8.23
2017-08-26T14:29:15.630Z,7.20
2017-08-26T14:31:41.698Z,8.37
2017-08-26T14:34:07.746Z,7.70
2017-08-26T14:36:33.812Z,6.70
2017-08-26T14:38:59.881Z,6.33
2017-08-26T14:41:25.934Z,6.80
2017-08-26T14:43:51.994Z,7.53
2017-08-26T14:46:18.046Z,6.50
2017-08-26T14:48:44.129Z,7.50
2017-08-26T14:51:10.190Z,7.90
2017-08-26T14:53:36.255Z,8.10
2017-08-26T14:56:02.298Z,8.10
2017-08-26T14:58:28.358Z,7.00
2017-08-26T15:00:54.398Z,7.40
2017-08-26T15:03:20.487Z,7.00
2017-08-26T15:05:46.526Z,7.80
2017-08-26T15:08:12.615Z,7.13
2017-08-26T15:10:38.703Z,8.63
2017-08-26T15:13:04.778Z,6.87
2017-08-26T15:15:30.822Z,8.27
2017-08-26T15:17:56.886Z,7.87
2017-08-26T15:20:22.929Z,7.67
2017-08-26T15:22:48.985Z,7.00
2017-08-26T15:25:15.055Z,6.73
2017-08-26T15:27:41.098Z,7.10
2017-08-26T15:30:07.170Z,7.93
2017-08-26T15:32:33.219Z,7.33
2017-08-26T15:34:59.290Z,7.60
2017-08-26T15:37:25.330Z,8.00
2017-08-26T15:39:51.399Z,6.93
2017-08-26T15:42:17.451Z,7.17
2017-08-26T15:44:43.530Z,7.00
2017-08-26T15:47:09.586Z,7.90
2017-08-26T15:49:35.658Z,6.50
2017-08-26T15:52:01.702Z,6.30
2017-08-26T15:54:27.780Z,6.13
2017-08-26T15:56:53.827Z,6.97
2017-08-26T15:59:19.888Z,7.13
2017-08-26T16:01:45.930Z,6.70
2017-08-26T16:04:11.990Z,7.20
2017-08-26T16:06:38.050Z,6.97
2017-08-26T16:09:04.109Z,7.43
2017-08-26T16:11:30.171Z,7.80
2017-08-26T16:13:56.250Z,7.17
2017-08-26T16:16:23.038Z,7.97
2017-08-26T16:18:49.114Z,7.90
2017-08-26T16:21:15.166Z,7.27
2017-08-26T16:23:41.283Z,7.40
2017-08-26T16:26:07.336Z,7.00
2017-08-26T16:28:33.387Z,7.23
2017-08-26T16:30:59.450Z,7.70
2017-08-26T16:33:25.495Z,7.10
2017-08-26T16:35:51.558Z,6.80
2017-08-26T16:38:17.598Z,6.60
2017-08-26T16:40:43.657Z,7.13
2017-08-26T16:43:09.697Z,7.43
2017-08-26T16:45:35.758Z,7.07
2017-08-26T16:48:01.815Z,6.70
2017-08-26T16:50:28.615Z,7.47
2017-08-26T16:52:54.662Z,6.53
2017-08-26T16:55:20.770Z,6.90
2017-08-26T16:57:46.813Z,6.50
2017-08-26T17:00:12.858Z,7.13
2017-08-26T17:02:38.925Z,6.90
2017-08-26T17:05:04.961Z,8.40
2017-08-26T17:07:31.017Z,8.60
2017-08-26T17:09:57.057Z,9.30
2017-08-26T17:12:23.114Z,6.77
2017-08-26T17:14:49.215Z,7.03
2017-08-26T17:17:15.274Z,7.60
2017-08-26T17:19:41.411Z,7.47
2017-08-26T17:22:07.477Z,8.23
2017-08-26T17:24:33.551Z,7.47
2017-08-26T17:26:59.598Z,8.00
2017-08-26T17:29:25.690Z,6.57
2017-08-26T17:31:51.804Z,6.80
2017-08-26T17:34:17.866Z,6.30
2017-08-26T17:36:43.922Z,7.00
2017-08-26T17:39:10.003Z,6.53
2017-08-26T17:41:36.075Z,7.90
2017-08-26T17:44:02.134Z,7.20
2017-08-26T17:46:28.211Z,7.10
2017-08-26T17:48:54.261Z,7.83
2017-08-26T17:51:20.305Z,6.83
2017-08-26T17:53:46.361Z,9.17
2017-08-26T17:56:12.410Z,9.13
2017-08-26T17:58:38.458Z,13.33
2017-08-26T18:01:04.538Z,16.73
2017-08-26T18:03:30.598Z,13.23
2017-08-26T18:05:56.666Z,14.33
2017-08-26T18:08:22.710Z,12.60
2017-08-26T18:10:48.775Z,13.60
2017-08-26T18:13:14.817Z,12.53
2017-08-26T18:15:40.883Z,13.00
2017-08-26T18:18:06.932Z,12.17
2017-08-26T18:20:32.982Z,11.20
2017-08-26T18:22:59.045Z,11.60
2017-08-26T18:25:25.114Z,11.50
2017-08-26T18:27:51.177Z,14.50
2017-08-26T18:30:17.241Z,17.53
2017-08-26T18:32:43.318Z,15.37
2017-08-26T18:35:09.383Z,14.37
2017-08-26T18:37:35.476Z,15.53
2017-08-26T18:40:01.531Z,13.37
2017-08-26T18:42:27.606Z,12.90
2017-08-26T18:44:53.662Z,13.57
2017-08-26T18:47:19.734Z,13.40
2017-08-26T18:49:45.789Z,13.50
2017-08-26T18:52:11.860Z,12.03
2017-08-26T18:54:37.937Z,13.40
2017-08-26T18:57:04.022Z,13.67
2017-08-26T18:59:30.087Z,15.70
2017-08-26T19:01:56.187Z,15.40
2017-08-26T19:04:22.234Z,16.90
2017-08-26T19:06:48.330Z,17.53
2017-08-26T19:09:15.238Z,18.57
2017-08-26T19:11:41.333Z,17.20
2017-08-26T19:14:07.398Z,17.37
2017-08-26T19:16:33.454Z,25.87
2017-08-26T19:18:59.493Z,29.03
2017-08-26T19:21:25.596Z,21.00
2017-08-26T19:23:51.810Z,19.70
2017-08-26T19:26:17.889Z,18.40
2017-08-26T19:28:43.930Z,19.63
2017-08-26T19:31:10.022Z,18.10
2017-08-26T19:33:36.081Z,19.47
2017-08-26T19:36:02.178Z,17.90
2017-08-26T19:38:28.219Z,21.77
2017-08-26T19:40:54.282Z,21.53
2017-08-26T19:43:20.331Z,20.80
2017-08-26T19:45:46.391Z,19.40
2017-08-26T19:48:12.433Z,20.97
2017-08-26T19:50:38.502Z,20.60
2017-08-26T19:53:04.558Z,18.63
2017-08-26T19:55:30.656Z,11.67
2017-08-26T19:57:56.697Z,12.80
2017-08-26T20:00:22.743Z,10.00
2017-08-26T20:02:48.797Z,9.27
2017-08-26T20:05:14.858Z,9.27
2017-08-26T20:07:40.905Z,10.57
2017-08-26T20:10:06.974Z,11.20
2017-08-26T20:12:33.033Z,11.57
2017-08-26T20:14:59.094Z,11.20
2017-08-26T20:17:25.180Z,11.67
2017-08-26T20:19:51.239Z,13.40
2017-08-26T20:22:17.326Z,13.67
2017-08-26T20:24:43.386Z,14.37
2017-08-26T20:27:09.454Z,13.80
2017-08-26T20:29:35.513Z,13.40
2017-08-26T20:32:01.655Z,13.07
2017-08-26T20:34:27.702Z,13.47
2017-08-26T20:36:53.774Z,16.97
2017-08-26T20:39:19.827Z,17.00
2017-08-26T20:41:45.918Z,16.73
2017-08-26T20:44:11.978Z,17.70
2017-08-26T20:46:38.046Z,18.50
2017-08-26T20:49:04.122Z,18.20
2017-08-26T20:51:30.157Z,18.53
2017-08-26T20:53:56.214Z,18.60
2017-08-26T20:56:22.326Z,19.70
2017-08-26T20:58:48.465Z,16.87
2017-08-26T21:01:14.610Z,17.87
2017-08-26T21:03:40.996Z,20.07
2017-08-26T21:06:07.068Z,21.27
2017-08-26T21:08:33.141Z,22.57
2017-08-26T21:10:59.212Z,25.57
2017-08-26T21:13:25.319Z,24.77
2017-08-26T21:15:51.407Z,28.37
2017-08-26T21:18:17.471Z,28.23
2017-08-26T21:20:43.529Z,29.20
2017-08-26T21:23:09.578Z,29.10
2017-08-26T21:25:35.657Z,35.00
2017-08-26T21:28:01.695Z,32.70
2017-08-26T21:30:27.782Z,34.77
2017-08-26T21:32:53.826Z,33.03
2017-08-26T21:35:19.894Z,37.10
2017-08-26T21:37:45.947Z,33.80
2017-08-26T21:40:12.022Z,35.70
2017-08-26T21:42:38.094Z,36.50
2017-08-26T21:45:04.179Z,35.00
2017-08-26T21:47:30.217Z,37.70
2017-08-26T21:49:56.444Z,39.27
2017-08-26T21:52:22.646Z,37.57
2017-08-26T21:54:48.983Z,37.27
2017-08-26T21:57:15.084Z,37.53
2017-08-26T21:59:41.166Z,38.93
2017-08-26T22:02:07.230Z,40.27
2017-08-26T22:04:33.323Z,41.70
2017-08-26T22:06:59.382Z,42.00
2017-08-26T22:09:25.493Z,43.40
2017-08-26T22:11:51.587Z,41.53
2017-08-26T22:14:17.775Z,43.40
2017-08-26T22:16:43.874Z,40.40
2017-08-26T22:19:09.951Z,44.10
2017-08-26T22:21:36.030Z,41.37
2017-08-26T22:24:02.231Z,44.20
2017-08-26T22:26:28.315Z,43.90
2017-08-26T22:28:54.396Z,43.03
2017-08-26T22:31:20.658Z,43.03
2017-08-26T22:33:46.710Z,41.20
2017-08-26T22:36:12.754Z,43.77
2017-08-26T22:38:39.026Z,44.20
2017-08-26T22:41:05.077Z,44.50
2017-08-26T22:43:31.140Z,40.90
2017-08-26T22:45:57.276Z,43.77
2017-08-26T22:48:23.352Z,43.43
2017-08-26T22:50:49.462Z,43.63
2017-08-26T22:53:15.600Z,42.70
2017-08-26T22:55:41.651Z,45.50
2017-08-26T22:58:07.724Z,44.87
2017-08-26T23:00:33.774Z,44.93
2017-08-26T23:02:59.823Z,44.50
2017-08-26T23:05:25.905Z,45.50
2017-08-26T23:07:51.951Z,44.90
2017-08-26T23:10:18.154Z,44.70
2017-08-26T23:12:44.193Z,46.63
2017-08-26T23:15:10.278Z,46.00
2017-08-26T23:17:36.322Z,43.57
2017-08-26T23:20:02.417Z,45.30
2017-08-26T23:22:28.466Z,45.83
2017-08-26T23:24:54.533Z,46.60
2017-08-26T23:27:20.595Z,47.07
2017-08-26T23:29:46.662Z,47.00
2017-08-26T23:32:12.706Z,46.67
2017-08-26T23:34:38.790Z,43.33
2017-08-26T23:37:04.838Z,47.37
2017-08-26T23:39:30.913Z,45.23
2017-08-26T23:41:57.055Z,46.07
2017-08-26T23:44:23.141Z,46.20
2017-08-26T23:46:49.182Z,46.87
2017-08-26T23:49:15.246Z,47.20
2017-08-26T23:51:41.312Z,46.80
2017-08-26T23:54:07.358Z,45.00
2017-08-26T23:56:33.409Z,45.90
2017-08-26T23:58:59.464Z,44.63
